sensor_id;sensor_type;location;lat;lon;timestamp;temperature;humidity
45803;DHT22;31504;51.716;9.184;2023-02-15T00:00:41;20.00;42.10
45803;DHT22;31504;51.716;9.184;2023-02-15T00:03:41;20.00;42.10
45803;DHT22;31504;51.716;9.184;2023-02-15T00:06:42;20.00;42.10
45803;DHT22;31504;51.716;9.184;2023-02-15T00:09:43;20.00;42.00
45803;DHT22;31504;51.716;9.184;2023-02-15T00:12:44;20.00;42.00
45803;DHT22;31504;51.716;9.184;2023-02-15T00:15:45;20.00;41.90
45803;DHT22;31504;51.716;9.184;2023-02-15T00:18:45;20.00;41.90
45803;DHT22;31504;51.716;9.184;2023-02-15T00:21:46;20.00;41.80
45803;DHT22;31504;51.716;9.184;2023-02-15T00:24:47;20.00;41.80
45803;DHT22;31504;51.716;9.184;2023-02-15T00:27:47;20.00;41.90
45803;DHT22;31504;51.716;9.184;2023-02-15T00:30:47;20.00;41.80
45803;DHT22;31504;51.716;9.184;2023-02-15T00:33:48;20.00;41.80
45803;DHT22;31504;51.716;9.184;2023-02-15T00:36:49;19.90;41.80
45803;DHT22;31504;51.716;9.184;2023-02-15T00:39:49;19.90;41.70
45803;DHT22;31504;51.716;9.184;2023-02-15T00:42:50;20.00;41.80
45803;DHT22;31504;51.716;9.184;2023-02-15T00:45:50;19.90;41.70
45803;DHT22;31504;51.716;9.184;2023-02-15T00:48:50;19.90;41.60
45803;DHT22;31504;51.716;9.184;2023-02-15T00:51:51;19.90;41.60
45803;DHT22;31504;51.716;9.184;2023-02-15T00:54:51;19.90;41.60
45803;DHT22;31504;51.716;9.184;2023-02-15T00:57:52;19.90;41.60
45803;DHT22;31504;51.716;9.184;2023-02-15T01:00:52;19.90;41.50
45803;DHT22;31504;51.716;9.184;2023-02-15T01:03:53;19.90;41.50
45803;DHT22;31504;51.716;9.184;2023-02-15T01:06:53;19.90;41.50
45803;DHT22;31504;51.716;9.184;2023-02-15T01:09:53;19.90;41.40
45803;DHT22;31504;51.716;9.184;2023-02-15T01:12:54;19.90;41.50
45803;DHT22;31504;51.716;9.184;2023-02-15T01:15:55;19.90;41.40
45803;DHT22;31504;51.716;9.184;2023-02-15T01:18:55;19.90;41.40
45803;DHT22;31504;51.716;9.184;2023-02-15T01:21:56;19.90;41.40
45803;DHT22;31504;51.716;9.184;2023-02-15T01:24:56;19.90;41.40
45803;DHT22;31504;51.716;9.184;2023-02-15T01:27:57;19.90;41.40
45803;DHT22;31504;51.716;9.184;2023-02-15T01:30:57;19.80;41.30
45803;DHT22;31504;51.716;9.184;2023-02-15T01:33:59;19.90;41.40
45803;DHT22;31504;51.716;9.184;2023-02-15T01:36:59;19.90;41.30
45803;DHT22;31504;51.716;9.184;2023-02-15T01:40:00;19.90;41.30
45803;DHT22;31504;51.716;9.184;2023-02-15T01:43:01;19.90;41.30
45803;DHT22;31504;51.716;9.184;2023-02-15T01:46:01;19.90;41.30
45803;DHT22;31504;51.716;9.184;2023-02-15T01:49:08;19.90;41.20
45803;DHT22;31504;51.716;9.184;2023-02-15T01:52:10;19.90;41.20
45803;DHT22;31504;51.716;9.184;2023-02-15T01:55:12;19.80;41.10
45803;DHT22;31504;51.716;9.184;2023-02-15T01:58:13;19.80;41.10
45803;DHT22;31504;51.716;9.184;2023-02-15T02:01:14;19.80;41.20
45803;DHT22;31504;51.716;9.184;2023-02-15T02:04:17;19.80;41.10
45803;DHT22;31504;51.716;9.184;2023-02-15T02:07:19;19.90;41.10
45803;DHT22;31504;51.716;9.184;2023-02-15T02:10:22;19.80;41.10
45803;DHT22;31504;51.716;9.184;2023-02-15T02:13:23;19.90;41.10
45803;DHT22;31504;51.716;9.184;2023-02-15T02:29:14;19.80;41.30
45803;DHT22;31504;51.716;9.184;2023-02-15T02:32:28;19.80;41.00
45803;DHT22;31504;51.716;9.184;2023-02-15T02:41:43;19.80;40.90
45803;DHT22;31504;51.716;9.184;2023-02-15T02:44:46;19.80;41.00
45803;DHT22;31504;51.716;9.184;2023-02-15T02:47:52;19.80;41.60
45803;DHT22;31504;51.716;9.184;2023-02-15T02:50:53;19.80;40.90
45803;DHT22;31504;51.716;9.184;2023-02-15T02:53:55;19.80;40.90
45803;DHT22;31504;51.716;9.184;2023-02-15T02:56:58;19.80;40.90
45803;DHT22;31504;51.716;9.184;2023-02-15T02:59:59;19.80;40.90
45803;DHT22;31504;51.716;9.184;2023-02-15T03:03:04;19.80;40.90
45803;DHT22;31504;51.716;9.184;2023-02-15T03:06:09;19.80;40.80
45803;DHT22;31504;51.716;9.184;2023-02-15T03:09:12;19.80;40.80
45803;DHT22;31504;51.716;9.184;2023-02-15T03:12:23;19.80;40.80
45803;DHT22;31504;51.716;9.184;2023-02-15T03:15:25;19.80;40.80
45803;DHT22;31504;51.716;9.184;2023-02-15T03:18:28;19.80;40.80
45803;DHT22;31504;51.716;9.184;2023-02-15T03:21:31;19.80;40.80
45803;DHT22;31504;51.716;9.184;2023-02-15T03:24:34;19.80;40.80
45803;DHT22;31504;51.716;9.184;2023-02-15T03:27:38;19.80;40.70
45803;DHT22;31504;51.716;9.184;2023-02-15T03:30:39;19.80;40.70
45803;DHT22;31504;51.716;9.184;2023-02-15T03:33:42;19.80;40.80
45803;DHT22;31504;51.716;9.184;2023-02-15T03:36:52;19.80;40.80
45803;DHT22;31504;51.716;9.184;2023-02-15T03:39:59;19.80;40.80
45803;DHT22;31504;51.716;9.184;2023-02-15T03:44:22;19.80;40.80
45803;DHT22;31504;51.716;9.184;2023-02-15T03:46:52;19.80;40.90
45803;DHT22;31504;51.716;9.184;2023-02-15T03:50:02;19.80;40.80
45803;DHT22;31504;51.716;9.184;2023-02-15T03:53:05;19.80;40.90
45803;DHT22;31504;51.716;9.184;2023-02-15T03:56:06;19.80;40.90
45803;DHT22;31504;51.716;9.184;2023-02-15T03:59:07;19.80;40.90
45803;DHT22;31504;51.716;9.184;2023-02-15T04:02:26;19.80;41.00
45803;DHT22;31504;51.716;9.184;2023-02-15T04:05:29;19.80;41.00
45803;DHT22;31504;51.716;9.184;2023-02-15T04:08:30;19.80;41.00
45803;DHT22;31504;51.716;9.184;2023-02-15T04:11:49;19.80;41.10
45803;DHT22;31504;51.716;9.184;2023-02-15T04:14:49;19.80;41.10
45803;DHT22;31504;51.716;9.184;2023-02-15T04:18:08;19.80;41.10
45803;DHT22;31504;51.716;9.184;2023-02-15T04:21:09;19.80;41.00
45803;DHT22;31504;51.716;9.184;2023-02-15T04:24:28;19.80;41.00
45803;DHT22;31504;51.716;9.184;2023-02-15T04:27:48;19.80;40.90
45803;DHT22;31504;51.716;9.184;2023-02-15T04:30:49;19.80;40.80
45803;DHT22;31504;51.716;9.184;2023-02-15T04:33:49;19.80;41.40
45803;DHT22;31504;51.716;9.184;2023-02-15T04:36:49;19.80;40.80
45803;DHT22;31504;51.716;9.184;2023-02-15T04:39:50;19.80;40.80
45803;DHT22;31504;51.716;9.184;2023-02-15T04:42:51;19.70;40.70
45803;DHT22;31504;51.716;9.184;2023-02-15T04:45:51;19.70;40.80
45803;DHT22;31504;51.716;9.184;2023-02-15T04:48:52;19.70;40.80
45803;DHT22;31504;51.716;9.184;2023-02-15T04:51:52;19.70;40.70
45803;DHT22;31504;51.716;9.184;2023-02-15T04:54:53;19.70;40.70
45803;DHT22;31504;51.716;9.184;2023-02-15T04:57:53;19.80;40.70
45803;DHT22;31504;51.716;9.184;2023-02-15T05:00:56;19.70;41.20
45803;DHT22;31504;51.716;9.184;2023-02-15T05:03:57;19.70;40.60
45803;DHT22;31504;51.716;9.184;2023-02-15T05:06:57;19.70;40.60
45803;DHT22;31504;51.716;9.184;2023-02-15T05:09:58;19.70;40.60
45803;DHT22;31504;51.716;9.184;2023-02-15T05:12:58;19.70;40.60
45803;DHT22;31504;51.716;9.184;2023-02-15T05:15:59;19.70;40.60
45803;DHT22;31504;51.716;9.184;2023-02-15T05:18:59;19.70;40.60
45803;DHT22;31504;51.716;9.184;2023-02-15T05:21:59;19.70;40.50
45803;DHT22;31504;51.716;9.184;2023-02-15T05:25:00;19.70;40.50
45803;DHT22;31504;51.716;9.184;2023-02-15T05:28:19;19.70;40.50
45803;DHT22;31504;51.716;9.184;2023-02-15T05:31:20;19.70;40.50
45803;DHT22;31504;51.716;9.184;2023-02-15T05:34:20;19.70;40.50
45803;DHT22;31504;51.716;9.184;2023-02-15T05:37:20;19.70;40.50
45803;DHT22;31504;51.716;9.184;2023-02-15T05:40:21;19.70;40.50
45803;DHT22;31504;51.716;9.184;2023-02-15T05:43:21;19.70;40.50
45803;DHT22;31504;51.716;9.184;2023-02-15T05:46:22;19.70;40.40
45803;DHT22;31504;51.716;9.184;2023-02-15T05:49:22;19.70;40.40
45803;DHT22;31504;51.716;9.184;2023-02-15T05:52:22;19.70;40.40
45803;DHT22;31504;51.716;9.184;2023-02-15T05:55:23;19.70;40.30
45803;DHT22;31504;51.716;9.184;2023-02-15T05:58:24;19.70;40.30
45803;DHT22;31504;51.716;9.184;2023-02-15T06:01:24;19.70;40.30
45803;DHT22;31504;51.716;9.184;2023-02-15T06:04:24;19.70;40.40
45803;DHT22;31504;51.716;9.184;2023-02-15T06:07:25;19.70;40.50
45803;DHT22;31504;51.716;9.184;2023-02-15T06:10:25;19.70;40.50
45803;DHT22;31504;51.716;9.184;2023-02-15T06:13:26;19.70;40.50
45803;DHT22;31504;51.716;9.184;2023-02-15T06:16:26;19.70;40.40
45803;DHT22;31504;51.716;9.184;2023-02-15T06:19:27;19.70;40.40
45803;DHT22;31504;51.716;9.184;2023-02-15T06:22:27;19.70;40.40
45803;DHT22;31504;51.716;9.184;2023-02-15T06:25:27;19.70;40.40
45803;DHT22;31504;51.716;9.184;2023-02-15T06:28:29;19.70;40.30
45803;DHT22;31504;51.716;9.184;2023-02-15T06:31:29;19.70;40.40
45803;DHT22;31504;51.716;9.184;2023-02-15T06:34:30;19.70;40.50
45803;DHT22;31504;51.716;9.184;2023-02-15T06:37:30;19.70;40.50
45803;DHT22;31504;51.716;9.184;2023-02-15T06:40:31;19.70;40.40
45803;DHT22;31504;51.716;9.184;2023-02-15T06:43:31;19.70;40.30
45803;DHT22;31504;51.716;9.184;2023-02-15T06:46:31;19.70;40.30
45803;DHT22;31504;51.716;9.184;2023-02-15T06:49:32;19.70;40.40
45803;DHT22;31504;51.716;9.184;2023-02-15T06:52:32;19.70;40.30
45803;DHT22;31504;51.716;9.184;2023-02-15T06:55:33;19.70;40.30
45803;DHT22;31504;51.716;9.184;2023-02-15T06:58:33;19.70;40.40
45803;DHT22;31504;51.716;9.184;2023-02-15T07:01:34;19.70;40.40
45803;DHT22;31504;51.716;9.184;2023-02-15T07:04:37;19.60;40.30
45803;DHT22;31504;51.716;9.184;2023-02-15T07:07:37;19.70;40.90
45803;DHT22;31504;51.716;9.184;2023-02-15T07:10:38;19.70;40.40
45803;DHT22;31504;51.716;9.184;2023-02-15T07:13:38;19.70;40.40
45803;DHT22;31504;51.716;9.184;2023-02-15T07:16:38;19.70;40.30
45803;DHT22;31504;51.716;9.184;2023-02-15T07:19:39;19.70;40.90
45803;DHT22;31504;51.716;9.184;2023-02-15T07:22:39;19.70;40.30
45803;DHT22;31504;51.716;9.184;2023-02-15T07:25:40;19.70;40.20
45803;DHT22;31504;51.716;9.184;2023-02-15T07:28:40;19.70;40.20
45803;DHT22;31504;51.716;9.184;2023-02-15T07:31:41;19.70;40.10
45803;DHT22;31504;51.716;9.184;2023-02-15T07:34:43;19.70;40.10
45803;DHT22;31504;51.716;9.184;2023-02-15T07:37:43;19.70;40.10
45803;DHT22;31504;51.716;9.184;2023-02-15T07:40:44;19.70;40.10
45803;DHT22;31504;51.716;9.184;2023-02-15T07:43:44;19.70;40.10
45803;DHT22;31504;51.716;9.184;2023-02-15T07:46:45;19.70;40.10
45803;DHT22;31504;51.716;9.184;2023-02-15T07:49:45;19.70;40.10
45803;DHT22;31504;51.716;9.184;2023-02-15T07:52:46;19.70;40.10
45803;DHT22;31504;51.716;9.184;2023-02-15T07:55:46;19.70;40.10
45803;DHT22;31504;51.716;9.184;2023-02-15T07:58:46;19.70;40.10
45803;DHT22;31504;51.716;9.184;2023-02-15T08:01:53;19.70;40.10
45803;DHT22;31504;51.716;9.184;2023-02-15T08:04:56;19.70;40.10
45803;DHT22;31504;51.716;9.184;2023-02-15T08:07:56;19.70;40.10
45803;DHT22;31504;51.716;9.184;2023-02-15T08:10:58;19.70;40.10
45803;DHT22;31504;51.716;9.184;2023-02-15T08:14:18;19.70;40.10
45803;DHT22;31504;51.716;9.184;2023-02-15T08:17:19;19.70;40.10
45803;DHT22;31504;51.716;9.184;2023-02-15T08:20:19;19.70;40.10
45803;DHT22;31504;51.716;9.184;2023-02-15T08:23:19;19.60;40.10
45803;DHT22;31504;51.716;9.184;2023-02-15T08:26:20;19.60;40.20
45803;DHT22;31504;51.716;9.184;2023-02-15T08:29:22;19.60;40.10
45803;DHT22;31504;51.716;9.184;2023-02-15T08:32:22;19.70;40.10
45803;DHT22;31504;51.716;9.184;2023-02-15T08:35:23;19.70;40.10
45803;DHT22;31504;51.716;9.184;2023-02-15T08:38:23;19.70;40.10
45803;DHT22;31504;51.716;9.184;2023-02-15T08:41:24;19.70;40.10
45803;DHT22;31504;51.716;9.184;2023-02-15T08:44:25;19.70;40.80
45803;DHT22;31504;51.716;9.184;2023-02-15T08:47:25;20.00;41.00
45803;DHT22;31504;51.716;9.184;2023-02-15T08:50:26;20.20;40.30
45803;DHT22;31504;51.716;9.184;2023-02-15T08:53:26;20.30;40.00
45803;DHT22;31504;51.716;9.184;2023-02-15T08:56:27;20.20;39.80
45803;DHT22;31504;51.716;9.184;2023-02-15T08:59:28;20.10;40.20
45803;DHT22;31504;51.716;9.184;2023-02-15T09:02:29;19.90;40.30
45803;DHT22;31504;51.716;9.184;2023-02-15T09:05:29;19.90;40.40
45803;DHT22;31504;51.716;9.184;2023-02-15T09:08:30;19.80;40.30
45803;DHT22;31504;51.716;9.184;2023-02-15T09:11:33;19.70;40.30
45803;DHT22;31504;51.716;9.184;2023-02-15T09:14:33;19.80;40.30
45803;DHT22;31504;51.716;9.184;2023-02-15T09:17:34;19.80;40.10
45803;DHT22;31504;51.716;9.184;2023-02-15T09:20:37;19.80;40.10
45803;DHT22;31504;51.716;9.184;2023-02-15T09:23:37;19.70;40.10
45803;DHT22;31504;51.716;9.184;2023-02-15T09:26:39;19.70;40.10
45803;DHT22;31504;51.716;9.184;2023-02-15T09:29:40;19.70;40.10
45803;DHT22;31504;51.716;9.184;2023-02-15T09:32:41;19.70;40.10
45803;DHT22;31504;51.716;9.184;2023-02-15T09:35:41;19.70;40.10
45803;DHT22;31504;51.716;9.184;2023-02-15T09:38:42;19.70;40.10
45803;DHT22;31504;51.716;9.184;2023-02-15T09:48:04;19.70;40.10
45803;DHT22;31504;51.716;9.184;2023-02-15T09:51:23;19.70;40.10
45803;DHT22;31504;51.716;9.184;2023-02-15T09:57:55;19.70;40.10
45803;DHT22;31504;51.716;9.184;2023-02-15T10:01:03;19.70;40.10
45803;DHT22;31504;51.716;9.184;2023-02-15T10:10:48;19.70;40.10
45803;DHT22;31504;51.716;9.184;2023-02-15T10:13:54;19.70;40.10
45803;DHT22;31504;51.716;9.184;2023-02-15T10:26:40;19.70;40.10
45803;DHT22;31504;51.716;9.184;2023-02-15T10:29:57;19.70;40.10
45803;DHT22;31504;51.716;9.184;2023-02-15T10:33:03;19.70;40.10
45803;DHT22;31504;51.716;9.184;2023-02-15T10:36:12;19.60;40.00
45803;DHT22;31504;51.716;9.184;2023-02-15T10:46:49;19.70;40.10
45803;DHT22;31504;51.716;9.184;2023-02-15T10:52:21;19.60;40.10
45803;DHT22;31504;51.716;9.184;2023-02-15T11:02:13;19.70;40.10
45803;DHT22;31504;51.716;9.184;2023-02-15T11:08:40;19.60;40.00
45803;DHT22;31504;51.716;9.184;2023-02-15T11:11:42;19.60;40.00
45803;DHT22;31504;51.716;9.184;2023-02-15T11:17:52;19.60;40.00
45803;DHT22;31504;51.716;9.184;2023-02-15T11:23:56;19.60;40.00
45803;DHT22;31504;51.716;9.184;2023-02-15T11:26:59;19.70;40.30
45803;DHT22;31504;51.716;9.184;2023-02-15T11:33:03;19.70;40.40
45803;DHT22;31504;51.716;9.184;2023-02-15T11:36:06;19.70;40.50
45803;DHT22;31504;51.716;9.184;2023-02-15T11:39:10;19.70;40.50
45803;DHT22;31504;51.716;9.184;2023-02-15T11:42:13;19.70;40.50
45803;DHT22;31504;51.716;9.184;2023-02-15T11:45:22;19.70;40.50
45803;DHT22;31504;51.716;9.184;2023-02-15T11:48:24;19.70;40.60
45803;DHT22;31504;51.716;9.184;2023-02-15T11:51:26;19.70;40.60
45803;DHT22;31504;51.716;9.184;2023-02-15T11:54:30;19.70;40.60
45803;DHT22;31504;51.716;9.184;2023-02-15T11:57:36;19.70;40.70
45803;DHT22;31504;51.716;9.184;2023-02-15T12:00:40;19.70;40.70
45803;DHT22;31504;51.716;9.184;2023-02-15T12:03:51;19.70;40.80
45803;DHT22;31504;51.716;9.184;2023-02-15T12:06:54;19.70;40.70
45803;DHT22;31504;51.716;9.184;2023-02-15T12:13:10;19.70;40.80
45803;DHT22;31504;51.716;9.184;2023-02-15T12:16:11;19.70;40.80
45803;DHT22;31504;51.716;9.184;2023-02-15T12:19:16;19.80;40.90
45803;DHT22;31504;51.716;9.184;2023-02-15T12:22:20;19.80;40.90
45803;DHT22;31504;51.716;9.184;2023-02-15T12:25:22;19.80;40.90
45803;DHT22;31504;51.716;9.184;2023-02-15T12:28:36;19.80;40.90
45803;DHT22;31504;51.716;9.184;2023-02-15T12:31:41;19.80;40.90
45803;DHT22;31504;51.716;9.184;2023-02-15T12:34:43;19.70;40.90
45803;DHT22;31504;51.716;9.184;2023-02-15T12:41:23;19.80;40.80
45803;DHT22;31504;51.716;9.184;2023-02-15T12:44:25;19.80;40.80
45803;DHT22;31504;51.716;9.184;2023-02-15T12:47:27;19.80;40.80
45803;DHT22;31504;51.716;9.184;2023-02-15T12:50:28;19.80;40.80
45803;DHT22;31504;51.716;9.184;2023-02-15T12:53:33;19.80;40.80
45803;DHT22;31504;51.716;9.184;2023-02-15T12:56:33;19.80;40.80
45803;DHT22;31504;51.716;9.184;2023-02-15T12:59:34;19.80;40.80
45803;DHT22;31504;51.716;9.184;2023-02-15T13:05:41;19.80;40.80
45803;DHT22;31504;51.716;9.184;2023-02-15T13:08:46;19.80;40.90
45803;DHT22;31504;51.716;9.184;2023-02-15T13:11:47;19.80;40.90
45803;DHT22;31504;51.716;9.184;2023-02-15T13:14:49;19.80;40.90
45803;DHT22;31504;51.716;9.184;2023-02-15T13:17:51;19.80;40.90
45803;DHT22;31504;51.716;9.184;2023-02-15T13:20:52;19.80;41.00
45803;DHT22;31504;51.716;9.184;2023-02-15T13:24:05;19.80;41.10
45803;DHT22;31504;51.716;9.184;2023-02-15T13:27:08;19.80;41.10
45803;DHT22;31504;51.716;9.184;2023-02-15T13:30:35;19.80;41.30
45803;DHT22;31504;51.716;9.184;2023-02-15T13:33:36;19.80;41.40
45803;DHT22;31504;51.716;9.184;2023-02-15T13:36:40;19.80;41.50
45803;DHT22;31504;51.716;9.184;2023-02-15T13:39:45;19.80;41.80
45803;DHT22;31504;51.716;9.184;2023-02-15T13:42:57;19.80;41.90
45803;DHT22;31504;51.716;9.184;2023-02-15T13:46:07;19.80;42.00
45803;DHT22;31504;51.716;9.184;2023-02-15T14:08:29;19.80;42.50
45803;DHT22;31504;51.716;9.184;2023-02-15T14:11:37;19.80;42.60
45803;DHT22;31504;51.716;9.184;2023-02-15T14:18:03;19.90;42.70
45803;DHT22;31504;51.716;9.184;2023-02-15T14:21:10;19.90;42.80
45803;DHT22;31504;51.716;9.184;2023-02-15T14:27:23;19.80;43.00
45803;DHT22;31504;51.716;9.184;2023-02-15T14:30:26;19.80;43.00
45803;DHT22;31504;51.716;9.184;2023-02-15T14:36:31;19.80;43.00
45803;DHT22;31504;51.716;9.184;2023-02-15T14:39:36;19.90;43.00
45803;DHT22;31504;51.716;9.184;2023-02-15T14:43:06;19.80;43.00
45803;DHT22;31504;51.716;9.184;2023-02-15T14:49:23;19.80;42.90
45803;DHT22;31504;51.716;9.184;2023-02-15T14:52:25;19.80;42.90
45803;DHT22;31504;51.716;9.184;2023-02-15T14:55:35;19.80;43.00
45803;DHT22;31504;51.716;9.184;2023-02-15T14:58:36;19.80;43.00
45803;DHT22;31504;51.716;9.184;2023-02-15T15:01:37;19.80;43.00
45803;DHT22;31504;51.716;9.184;2023-02-15T15:04:38;19.80;42.90
45803;DHT22;31504;51.716;9.184;2023-02-15T15:07:44;19.90;42.90
45803;DHT22;31504;51.716;9.184;2023-02-15T15:10:46;19.90;42.80
45803;DHT22;31504;51.716;9.184;2023-02-15T15:13:52;19.90;42.70
45803;DHT22;31504;51.716;9.184;2023-02-15T15:16:53;19.90;42.70
45803;DHT22;31504;51.716;9.184;2023-02-15T15:29:38;19.90;42.80
45803;DHT22;31504;51.716;9.184;2023-02-15T15:33:03;19.90;43.00
45803;DHT22;31504;51.716;9.184;2023-02-15T15:36:16;19.90;43.00
45803;DHT22;31504;51.716;9.184;2023-02-15T15:39:28;19.90;42.80
45803;DHT22;31504;51.716;9.184;2023-02-15T15:45:56;19.90;42.90
45803;DHT22;31504;51.716;9.184;2023-02-15T15:49:02;19.90;43.00
45803;DHT22;31504;51.716;9.184;2023-02-15T15:52:17;20.00;43.10
45803;DHT22;31504;51.716;9.184;2023-02-15T15:55:19;20.00;43.30
45803;DHT22;31504;51.716;9.184;2023-02-15T15:58:21;19.90;43.30
45803;DHT22;31504;51.716;9.184;2023-02-15T16:01:29;20.00;43.70
45803;DHT22;31504;51.716;9.184;2023-02-15T16:04:31;19.90;43.80
45803;DHT22;31504;51.716;9.184;2023-02-15T16:07:32;19.90;43.90
45803;DHT22;31504;51.716;9.184;2023-02-15T16:10:33;20.00;44.10
45803;DHT22;31504;51.716;9.184;2023-02-15T16:13:34;20.00;44.20
45803;DHT22;31504;51.716;9.184;2023-02-15T16:16:34;19.90;44.30
45803;DHT22;31504;51.716;9.184;2023-02-15T16:19:36;20.00;44.40
45803;DHT22;31504;51.716;9.184;2023-02-15T16:22:38;20.00;44.60
45803;DHT22;31504;51.716;9.184;2023-02-15T16:29:18;19.90;44.90
45803;DHT22;31504;51.716;9.184;2023-02-15T16:35:20;20.00;45.10
45803;DHT22;31504;51.716;9.184;2023-02-15T16:39:08;20.00;45.10
45803;DHT22;31504;51.716;9.184;2023-02-15T16:41:42;20.00;45.10
45803;DHT22;31504;51.716;9.184;2023-02-15T16:44:48;20.00;45.00
45803;DHT22;31504;51.716;9.184;2023-02-15T16:47:50;20.00;45.10
45803;DHT22;31504;51.716;9.184;2023-02-15T16:50:53;20.00;45.10
45803;DHT22;31504;51.716;9.184;2023-02-15T16:53:55;20.00;45.10
45803;DHT22;31504;51.716;9.184;2023-02-15T16:56:56;20.00;45.20
45803;DHT22;31504;51.716;9.184;2023-02-15T17:00:14;20.00;45.30
45803;DHT22;31504;51.716;9.184;2023-02-15T17:06:27;20.10;45.40
45803;DHT22;31504;51.716;9.184;2023-02-15T17:09:29;20.10;45.40
45803;DHT22;31504;51.716;9.184;2023-02-15T17:13:03;20.00;45.40
45803;DHT22;31504;51.716;9.184;2023-02-15T17:18:59;20.10;45.60
45803;DHT22;31504;51.716;9.184;2023-02-15T17:22:01;20.10;45.60
45803;DHT22;31504;51.716;9.184;2023-02-15T17:25:02;20.10;45.70
45803;DHT22;31504;51.716;9.184;2023-02-15T17:28:04;20.10;45.80
45803;DHT22;31504;51.716;9.184;2023-02-15T17:31:06;20.10;45.90
45803;DHT22;31504;51.716;9.184;2023-02-15T17:34:09;20.00;45.90
45803;DHT22;31504;51.716;9.184;2023-02-15T17:40:37;20.10;46.10
45803;DHT22;31504;51.716;9.184;2023-02-15T17:43:38;20.10;46.20
45803;DHT22;31504;51.716;9.184;2023-02-15T17:46:38;20.10;46.30
45803;DHT22;31504;51.716;9.184;2023-02-15T17:49:39;20.00;46.30
45803;DHT22;31504;51.716;9.184;2023-02-15T17:52:40;20.10;46.40
45803;DHT22;31504;51.716;9.184;2023-02-15T17:55:40;20.00;46.30
45803;DHT22;31504;51.716;9.184;2023-02-15T17:58:42;20.00;46.30
45803;DHT22;31504;51.716;9.184;2023-02-15T18:01:44;20.00;46.20
45803;DHT22;31504;51.716;9.184;2023-02-15T18:05:04;20.00;45.90
45803;DHT22;31504;51.716;9.184;2023-02-15T18:08:25;20.10;45.80
45803;DHT22;31504;51.716;9.184;2023-02-15T18:11:44;20.10;45.60
45803;DHT22;31504;51.716;9.184;2023-02-15T18:14:48;20.00;45.40
45803;DHT22;31504;51.716;9.184;2023-02-15T18:17:49;20.10;45.40
45803;DHT22;31504;51.716;9.184;2023-02-15T18:20:49;20.10;45.30
45803;DHT22;31504;51.716;9.184;2023-02-15T18:23:50;20.00;45.10
45803;DHT22;31504;51.716;9.184;2023-02-15T18:26:51;20.10;45.20
45803;DHT22;31504;51.716;9.184;2023-02-15T18:29:52;20.10;45.10
45803;DHT22;31504;51.716;9.184;2023-02-15T18:32:53;20.00;44.90
45803;DHT22;31504;51.716;9.184;2023-02-15T18:35:55;20.10;44.90
45803;DHT22;31504;51.716;9.184;2023-02-15T18:38:56;20.00;44.80
45803;DHT22;31504;51.716;9.184;2023-02-15T18:41:57;20.10;44.80
45803;DHT22;31504;51.716;9.184;2023-02-15T18:44:58;20.00;44.80
45803;DHT22;31504;51.716;9.184;2023-02-15T18:47:59;20.00;44.70
45803;DHT22;31504;51.716;9.184;2023-02-15T18:51:00;20.00;44.70
45803;DHT22;31504;51.716;9.184;2023-02-15T18:54:00;20.00;45.40
45803;DHT22;31504;51.716;9.184;2023-02-15T18:57:01;20.10;44.90
45803;DHT22;31504;51.716;9.184;2023-02-15T19:00:02;20.00;44.80
45803;DHT22;31504;51.716;9.184;2023-02-15T19:03:02;20.00;44.90
45803;DHT22;31504;51.716;9.184;2023-02-15T19:06:03;20.00;45.00
45803;DHT22;31504;51.716;9.184;2023-02-15T19:09:08;20.00;45.10
45803;DHT22;31504;51.716;9.184;2023-02-15T19:12:11;20.00;45.20
45803;DHT22;31504;51.716;9.184;2023-02-15T19:15:19;20.00;45.10
45803;DHT22;31504;51.716;9.184;2023-02-15T19:18:20;20.00;45.10
45803;DHT22;31504;51.716;9.184;2023-02-15T19:21:21;20.00;45.00
45803;DHT22;31504;51.716;9.184;2023-02-15T19:24:22;20.00;45.00
45803;DHT22;31504;51.716;9.184;2023-02-15T19:27:25;20.00;44.90
45803;DHT22;31504;51.716;9.184;2023-02-15T19:30:27;20.00;44.90
45803;DHT22;31504;51.716;9.184;2023-02-15T19:33:28;20.00;44.80
45803;DHT22;31504;51.716;9.184;2023-02-15T19:36:29;20.00;44.70
45803;DHT22;31504;51.716;9.184;2023-02-15T19:39:38;20.00;44.70
45803;DHT22;31504;51.716;9.184;2023-02-15T19:42:39;20.00;44.60
45803;DHT22;31504;51.716;9.184;2023-02-15T19:45:39;20.00;44.50
45803;DHT22;31504;51.716;9.184;2023-02-15T19:48:40;20.00;44.40
45803;DHT22;31504;51.716;9.184;2023-02-15T19:51:40;20.00;44.40
45803;DHT22;31504;51.716;9.184;2023-02-15T19:54:41;20.00;44.30
45803;DHT22;31504;51.716;9.184;2023-02-15T19:57:41;20.00;44.20
45803;DHT22;31504;51.716;9.184;2023-02-15T20:00:42;20.00;44.20
45803;DHT22;31504;51.716;9.184;2023-02-15T20:03:42;20.00;44.10
45803;DHT22;31504;51.716;9.184;2023-02-15T20:06:43;20.00;44.10
45803;DHT22;31504;51.716;9.184;2023-02-15T20:09:44;20.00;44.10
45803;DHT22;31504;51.716;9.184;2023-02-15T20:12:44;20.00;44.00
45803;DHT22;31504;51.716;9.184;2023-02-15T20:15:45;20.00;43.90
45803;DHT22;31504;51.716;9.184;2023-02-15T20:18:46;20.00;43.80
45803;DHT22;31504;51.716;9.184;2023-02-15T20:21:46;20.00;43.80
45803;DHT22;31504;51.716;9.184;2023-02-15T20:24:51;20.00;43.80
45803;DHT22;31504;51.716;9.184;2023-02-15T20:27:54;20.00;43.80
45803;DHT22;31504;51.716;9.184;2023-02-15T20:30:56;20.00;43.80
45803;DHT22;31504;51.716;9.184;2023-02-15T20:33:57;20.00;43.60
45803;DHT22;31504;51.716;9.184;2023-02-15T20:36:57;20.00;43.60
45803;DHT22;31504;51.716;9.184;2023-02-15T20:39:58;20.00;43.60
45803;DHT22;31504;51.716;9.184;2023-02-15T20:42:59;20.00;43.60
45803;DHT22;31504;51.716;9.184;2023-02-15T20:46:00;20.00;43.60
45803;DHT22;31504;51.716;9.184;2023-02-15T20:49:00;20.00;43.50
45803;DHT22;31504;51.716;9.184;2023-02-15T20:52:01;20.00;43.50
45803;DHT22;31504;51.716;9.184;2023-02-15T20:55:08;20.00;43.50
45803;DHT22;31504;51.716;9.184;2023-02-15T20:58:19;20.00;43.40
45803;DHT22;31504;51.716;9.184;2023-02-15T21:01:20;20.00;43.40
45803;DHT22;31504;51.716;9.184;2023-02-15T21:04:21;20.00;43.30
45803;DHT22;31504;51.716;9.184;2023-02-15T21:07:22;20.00;43.30
45803;DHT22;31504;51.716;9.184;2023-02-15T21:10:24;20.00;43.20
45803;DHT22;31504;51.716;9.184;2023-02-15T21:13:32;20.00;43.20
45803;DHT22;31504;51.716;9.184;2023-02-15T21:16:35;20.00;43.10
45803;DHT22;31504;51.716;9.184;2023-02-15T21:19:35;20.00;43.10
45803;DHT22;31504;51.716;9.184;2023-02-15T21:22:36;20.00;43.10
45803;DHT22;31504;51.716;9.184;2023-02-15T21:25:36;20.00;43.10
45803;DHT22;31504;51.716;9.184;2023-02-15T21:28:36;20.00;43.10
45803;DHT22;31504;51.716;9.184;2023-02-15T21:31:39;20.00;43.00
45803;DHT22;31504;51.716;9.184;2023-02-15T21:34:39;20.00;43.00
45803;DHT22;31504;51.716;9.184;2023-02-15T21:37:40;20.00;43.00
45803;DHT22;31504;51.716;9.184;2023-02-15T21:40:41;20.00;43.00